Time;durP1;ratioP1;P1;durP2;ratioP2;P2;SDS_P1;SDS_P2;PMS_P1;PMS_P2;Temp;Humidity;BMP_temperature;BMP_pressure;BME280_temperature;BME280_humidity;BME280_pressure;Samples;Min_cycle;Max_cycle;Signal;HPM_P1;HPM_P2
2024/02/04 00:00:51;;;;;;;15.23;6.60;;;7.30;99.90;;;;;;7377576;19;20113;-65
2024/02/04 00:03:19;;;;;;;13.95;6.47;;;7.20;99.90;;;;;;7373325;19;20070;-65
2024/02/04 00:05:46;;;;;;;21.08;6.68;;;7.20;99.90;;;;;;7375408;19;20029;-65
2024/02/04 00:08:16;;;;;;;15.55;6.78;;;7.10;99.90;;;;;;7370033;19;21016;-65
2024/02/04 00:10:44;;;;;;;18.20;7.47;;;7.10;99.90;;;;;;7371431;19;20011;-65
2024/02/04 00:13:10;;;;;;;23.00;7.65;;;7.00;99.90;;;;;;7373263;19;20049;-66
2024/02/04 00:15:36;;;;;;;29.35;7.85;;;7.10;99.90;;;;;;7375923;19;20047;-66
2024/02/04 00:18:02;;;;;;;19.17;6.53;;;7.10;99.90;;;;;;7368851;19;20022;-66
2024/02/04 00:20:29;;;;;;;16.00;5.65;;;7.10;99.90;;;;;;7374248;19;20694;-66
2024/02/04 00:22:55;;;;;;;23.95;5.85;;;7.10;99.90;;;;;;7372589;19;20033;-66
2024/02/04 00:25:21;;;;;;;10.88;4.68;;;7.20;99.90;;;;;;7372230;19;20578;-65
2024/02/04 00:27:51;;;;;;;17.58;4.25;;;7.20;99.90;;;;;;7372543;19;20022;-65
2024/02/04 00:30:20;;;;;;;12.30;4.75;;;7.20;99.90;;;;;;7371549;19;20105;-66
2024/02/04 00:32:46;;;;;;;11.98;4.45;;;7.20;99.90;;;;;;7373187;19;20010;-65
2024/02/04 00:35:12;;;;;;;16.55;3.95;;;7.20;99.90;;;;;;7372997;19;20050;-66
2024/02/04 00:37:38;;;;;;;13.40;4.05;;;7.20;99.90;;;;;;7372353;19;20026;-65
2024/02/04 00:40:05;;;;;;;11.32;3.65;;;7.20;99.90;;;;;;7371021;19;20022;-66
2024/02/04 00:42:31;;;;;;;12.82;3.50;;;7.30;99.90;;;;;;7369724;19;20351;-65
2024/02/04 00:44:57;;;;;;;12.25;3.38;;;7.30;99.90;;;;;;7373319;19;20015;-65
2024/02/04 00:47:24;;;;;;;9.30;3.13;;;7.30;99.90;;;;;;7374081;19;20026;-66
2024/02/04 00:49:51;;;;;;;12.98;3.53;;;7.20;99.90;;;;;;7370128;19;20082;-66
2024/02/04 00:52:17;;;;;;;10.60;3.63;;;7.20;99.90;;;;;;7374181;19;20022;-65
2024/02/04 00:54:44;;;;;;;18.58;3.65;;;7.10;99.90;;;;;;7374509;19;20025;-65
2024/02/04 00:57:10;;;;;;;14.00;3.65;;;7.10;99.90;;;;;;7371074;19;20078;-66
2024/02/04 00:59:36;;;;;;;13.05;3.63;;;7.10;99.90;;;;;;7370951;19;20022;-65
2024/02/04 01:02:03;;;;;;;13.80;3.72;;;7.10;99.90;;;;;;7368093;19;20022;-65
2024/02/04 01:04:29;;;;;;;12.27;3.22;;;7.10;99.90;;;;;;7374741;19;20015;-66
2024/02/04 01:06:55;;;;;;;12.02;3.13;;;7.20;99.90;;;;;;7369692;19;21008;-65
2024/02/04 01:09:23;;;;;;;14.00;3.70;;;7.10;99.90;;;;;;7370547;19;20042;-65
2024/02/04 01:11:50;;;;;;;14.48;3.78;;;7.20;99.90;;;;;;7372363;19;20040;-65
2024/02/04 01:14:17;;;;;;;13.35;4.18;;;7.20;99.90;;;;;;7368183;19;20030;-65
2024/02/04 01:16:47;;;;;;;11.48;3.70;;;7.10;99.90;;;;;;7372256;19;20539;-65
2024/02/04 01:19:14;;;;;;;16.00;3.90;;;7.20;99.90;;;;;;7363918;19;20019;-66
2024/02/04 01:21:44;;;;;;;15.90;4.18;;;7.20;99.90;;;;;;7371371;19;20026;-66
2024/02/04 01:24:12;;;;;;;14.15;3.05;;;7.20;99.90;;;;;;7369360;19;20018;-65
2024/02/04 01:26:39;;;;;;;14.07;4.43;;;7.20;99.90;;;;;;7370850;19;20094;-65
2024/02/04 01:29:06;;;;;;;15.60;3.50;;;7.20;99.90;;;;;;7371066;19;20370;-65
2024/02/04 01:31:33;;;;;;;17.27;3.47;;;7.10;99.90;;;;;;7371772;19;20014;-65
2024/02/04 01:34:01;;;;;;;9.68;3.47;;;7.10;99.90;;;;;;7370293;19;20029;-65
2024/02/04 01:36:27;;;;;;;13.18;3.28;;;7.00;99.90;;;;;;7372720;19;20423;-65
2024/02/04 01:38:54;;;;;;;12.00;3.45;;;7.00;99.90;;;;;;7369188;19;20022;-65
2024/02/04 01:41:22;;;;;;;10.18;2.83;;;7.00;99.90;;;;;;7368831;19;20010;-65
2024/02/04 01:43:48;;;;;;;9.57;2.63;;;7.00;99.90;;;;;;7365316;19;20456;-65
2024/02/04 01:46:14;;;;;;;9.52;3.20;;;7.00;99.90;;;;;;7363159;19;20018;-65
2024/02/04 01:48:41;;;;;;;13.63;4.07;;;7.00;99.90;;;;;;7366345;19;21258;-65
2024/02/04 01:51:07;;;;;;;14.68;3.38;;;6.90;99.90;;;;;;7371122;19;20862;-65
2024/02/04 01:53:34;;;;;;;8.98;2.45;;;7.00;99.90;;;;;;7367444;19;20026;-66
2024/02/04 01:56:01;;;;;;;17.88;3.22;;;7.00;99.90;;;;;;7368515;19;20082;-66
2024/02/04 01:58:27;;;;;;;9.52;2.65;;;6.90;99.90;;;;;;7365819;19;20384;-65
2024/02/04 02:00:54;;;;;;;10.48;2.97;;;6.90;99.90;;;;;;7367444;19;20025;-65
2024/02/04 02:03:22;;;;;;;9.20;2.65;;;6.90;99.90;;;;;;7365391;19;20015;-66
2024/02/04 02:05:49;;;;;;;14.73;3.22;;;6.90;99.90;;;;;;7364882;19;20029;-66
2024/02/04 02:08:16;;;;;;;14.07;3.05;;;6.80;99.90;;;;;;7367259;19;20021;-66
2024/02/04 02:10:46;;;;;;;15.32;2.88;;;6.90;99.90;;;;;;7364927;19;20502;-65
2024/02/04 02:13:28;;;;;;;12.07;2.67;;;6.90;99.90;;;;;;7364591;19;20504;-66
2024/02/04 02:16:19;;;;;;;10.02;2.58;;;6.90;99.90;;;;;;7360579;19;20028;-65
2024/02/04 02:18:53;;;;;;;9.38;2.72;;;6.90;99.90;;;;;;7367297;19;20018;-65
2024/02/04 02:21:49;;;;;;;9.80;2.78;;;6.80;99.90;;;;;;7366806;19;20033;-66
2024/02/04 02:24:21;;;;;;;14.05;2.95;;;6.80;99.90;;;;;;7368500;19;20038;-65
2024/02/04 02:26:52;;;;;;;17.35;3.65;;;6.90;99.90;;;;;;7365646;19;20061;-66
2024/02/04 02:29:19;;;;;;;11.45;3.15;;;6.90;99.90;;;;;;7364609;19;20773;-65
2024/02/04 02:31:45;;;;;;;11.60;3.22;;;6.90;99.90;;;;;;7364402;19;21316;-65
2024/02/04 02:34:12;;;;;;;10.85;3.88;;;6.80;99.90;;;;;;7366852;19;20018;-66
2024/02/04 02:36:52;;;;;;;13.00;4.68;;;6.80;99.90;;;;;;7369469;19;20055;-66
2024/02/04 02:39:23;;;;;;;10.38;4.18;;;6.80;99.90;;;;;;7369168;19;20662;-66
2024/02/04 02:41:54;;;;;;;15.93;5.45;;;6.80;99.90;;;;;;7369035;19;20014;-65
2024/02/04 02:44:23;;;;;;;16.15;5.30;;;6.80;99.90;;;;;;7363829;19;20025;-65
2024/02/04 02:46:50;;;;;;;14.02;4.85;;;6.70;99.90;;;;;;7368182;19;20018;-65
2024/02/04 02:49:18;;;;;;;14.43;4.90;;;6.80;99.90;;;;;;7364250;19;20632;-65
2024/02/04 02:51:45;;;;;;;15.15;5.72;;;6.80;99.90;;;;;;7367898;19;20014;-65
2024/02/04 02:54:15;;;;;;;14.23;6.63;;;6.80;99.90;;;;;;7362255;19;20734;-65
2024/02/04 02:56:42;;;;;;;21.38;6.78;;;6.80;99.90;;;;;;7367152;19;20086;-64
2024/02/04 02:59:09;;;;;;;18.60;6.93;;;6.80;99.90;;;;;;7366727;19;20412;-64
2024/02/04 03:01:39;;;;;;;17.38;6.50;;;6.80;99.90;;;;;;7367109;19;20023;-64
2024/02/04 03:04:07;;;;;;;19.88;7.30;;;6.80;99.90;;;;;;7365936;19;20849;-64
2024/02/04 03:06:33;;;;;;;19.08;7.10;;;6.90;99.90;;;;;;7366299;19;20090;-65
2024/02/04 03:08:59;;;;;;;17.73;7.07;;;6.90;99.90;;;;;;7368104;19;20015;-65
2024/02/04 03:11:25;;;;;;;22.52;6.78;;;6.80;99.90;;;;;;7366172;19;20019;-65
2024/02/04 03:13:52;;;;;;;16.73;6.43;;;6.80;99.90;;;;;;7360911;19;20542;-65
2024/02/04 03:16:18;;;;;;;22.77;7.32;;;6.80;99.90;;;;;;7365521;19;20084;-64
2024/02/04 03:18:46;;;;;;;13.60;5.25;;;6.80;99.90;;;;;;7366044;19;20571;-65
2024/02/04 03:21:16;;;;;;;16.35;6.47;;;6.80;99.90;;;;;;7364680;19;20025;-65
2024/02/04 03:23:44;;;;;;;11.68;5.85;;;6.70;99.90;;;;;;7367825;19;20022;-65
2024/02/04 03:26:10;;;;;;;14.57;5.60;;;6.70;99.90;;;;;;7361201;19;20015;-65
2024/02/04 03:28:37;;;;;;;17.88;5.53;;;6.70;99.90;;;;;;7368513;19;20372;-65
2024/02/04 03:31:04;;;;;;;13.20;4.35;;;6.70;99.90;;;;;;7363405;19;20022;-65
2024/02/04 03:33:30;;;;;;;23.17;4.63;;;6.70;99.90;;;;;;7365108;19;20049;-65
2024/02/04 03:35:57;;;;;;;12.45;4.43;;;6.80;99.90;;;;;;7355666;19;20043;-65
2024/02/04 03:38:23;;;;;;;14.77;3.55;;;6.80;99.90;;;;;;7371073;19;20242;-65
2024/02/04 03:40:50;;;;;;;13.90;4.13;;;6.70;99.90;;;;;;7373054;19;20038;-65
2024/02/04 03:43:17;;;;;;;17.65;4.20;;;6.70;99.90;;;;;;7372584;19;20751;-65
2024/02/04 03:45:44;;;;;;;16.40;3.80;;;6.70;99.90;;;;;;7370444;19;20096;-65
2024/02/04 03:48:10;;;;;;;12.00;3.20;;;6.70;99.90;;;;;;7374626;19;20531;-65
2024/02/04 03:50:36;;;;;;;17.63;3.75;;;6.70;99.90;;;;;;7373904;19;20122;-65
2024/02/04 03:53:03;;;;;;;13.07;3.38;;;6.80;99.90;;;;;;7371222;19;20083;-65
2024/02/04 03:55:29;;;;;;;14.02;3.65;;;6.70;99.90;;;;;;7375238;19;20626;-65
2024/02/04 03:57:58;;;;;;;11.98;2.80;;;6.70;99.90;;;;;;7369652;19;20866;-65
2024/02/04 04:00:25;;;;;;;11.57;3.35;;;6.70;99.90;;;;;;7373924;19;20074;-65
2024/02/04 04:02:51;;;;;;;14.95;3.05;;;6.70;99.90;;;;;;7367808;19;20046;-65
2024/02/04 04:05:18;;;;;;;12.43;3.35;;;6.70;99.90;;;;;;7367337;19;20626;-65
2024/02/04 04:07:45;;;;;;;10.05;2.28;;;6.70;99.90;;;;;;7370877;19;20015;-65
2024/02/04 04:10:12;;;;;;;14.55;3.13;;;6.70;99.90;;;;;;7369690;19;20778;-65
2024/02/04 04:12:39;;;;;;;14.93;3.45;;;6.70;99.90;;;;;;7370363;19;20787;-65
2024/02/04 04:15:06;;;;;;;12.50;2.72;;;6.70;99.90;;;;;;7367942;19;20024;-65
2024/02/04 04:17:33;;;;;;;11.30;2.85;;;6.70;99.90;;;;;;7361424;19;20025;-65
2024/02/04 04:20:00;;;;;;;13.05;2.88;;;6.70;99.90;;;;;;7360986;19;20018;-65
2024/02/04 04:22:27;;;;;;;16.70;4.07;;;6.70;99.90;;;;;;7366707;19;20703;-65
2024/02/04 04:24:54;;;;;;;12.68;2.97;;;6.70;99.90;;;;;;7370110;19;20117;-65
2024/02/04 04:27:21;;;;;;;13.75;3.03;;;6.70;99.90;;;;;;7366295;19;20152;-65
2024/02/04 04:29:48;;;;;;;11.50;2.75;;;6.70;99.90;;;;;;7370414;19;20015;-65
2024/02/04 04:32:15;;;;;;;8.75;2.08;;;6.70;99.90;;;;;;7365338;19;20014;-65
2024/02/04 04:34:42;;;;;;;10.73;2.75;;;6.70;99.90;;;;;;7370956;19;20556;-65
2024/02/04 04:37:09;;;;;;;16.10;2.95;;;6.80;99.90;;;;;;7361911;19;20479;-65
2024/02/04 04:39:35;;;;;;;15.60;3.08;;;6.80;99.90;;;;;;7370187;19;20479;-65
2024/02/04 04:42:01;;;;;;;13.15;2.65;;;6.70;99.90;;;;;;7367126;19;20033;-65
2024/02/04 04:44:28;;;;;;;14.95;3.17;;;6.70;99.90;;;;;;7366363;19;20025;-65
2024/02/04 04:46:54;;;;;;;13.55;3.25;;;6.70;99.90;;;;;;7371087;19;20117;-65
2024/02/04 04:49:24;;;;;;;10.20;2.50;;;6.70;99.90;;;;;;7363132;19;20547;-65
2024/02/04 04:51:50;;;;;;;16.88;3.38;;;6.70;99.90;;;;;;7360649;19;20014;-65
2024/02/04 04:54:16;;;;;;;11.95;2.72;;;6.60;99.90;;;;;;7364725;19;20022;-65
2024/02/04 04:56:43;;;;;;;16.63;3.38;;;6.60;99.90;;;;;;7365754;19;20021;-65
2024/02/04 04:59:09;;;;;;;15.63;2.70;;;6.60;99.90;;;;;;7366609;19;20878;-65
2024/02/04 05:01:35;;;;;;;9.65;3.03;;;6.60;99.90;;;;;;7368766;19;20028;-65
2024/02/04 05:04:02;;;;;;;12.13;2.63;;;6.60;99.90;;;;;;7364548;19;20047;-65
2024/02/04 05:06:31;;;;;;;13.00;3.05;;;6.60;99.90;;;;;;7363948;19;20756;-66
2024/02/04 05:08:57;;;;;;;15.95;3.28;;;6.60;99.90;;;;;;7368472;19;20050;-65
2024/02/04 05:11:23;;;;;;;11.10;3.03;;;6.60;99.90;;;;;;7369116;19;20014;-65
2024/02/04 05:13:50;;;;;;;17.60;3.25;;;6.60;99.90;;;;;;7362886;19;20018;-65
2024/02/04 05:16:16;;;;;;;11.82;2.70;;;6.60;99.90;;;;;;7366148;19;20092;-65
2024/02/04 05:18:42;;;;;;;11.88;3.78;;;6.60;99.90;;;;;;7362584;19;20050;-65
2024/02/04 05:21:09;;;;;;;11.50;3.08;;;6.60;99.90;;;;;;7367259;19;20043;-65
2024/02/04 05:23:37;;;;;;;12.43;2.80;;;6.60;99.90;;;;;;7365052;19;20471;-66
2024/02/04 05:26:06;;;;;;;12.35;2.80;;;6.60;99.90;;;;;;7365824;19;20026;-65
2024/02/04 05:28:33;;;;;;;10.10;2.38;;;6.60;99.90;;;;;;7368537;19;20795;-65
2024/02/04 05:31:02;;;;;;;17.05;3.40;;;6.60;99.90;;;;;;7366021;19;20026;-65
2024/02/04 05:33:28;;;;;;;9.40;2.78;;;6.60;99.90;;;;;;7363274;19;20019;-65
2024/02/04 05:35:55;;;;;;;12.68;2.42;;;6.60;99.90;;;;;;7362266;19;20018;-65
2024/02/04 05:38:22;;;;;;;11.55;2.63;;;6.70;99.90;;;;;;7365051;19;20127;-66
2024/02/04 05:40:49;;;;;;;25.05;3.22;;;6.70;99.90;;;;;;7357734;19;20459;-65
2024/02/04 05:43:16;;;;;;;15.82;3.13;;;6.70;99.90;;;;;;7362097;19;20014;-65
2024/02/04 05:45:43;;;;;;;13.48;3.30;;;6.70;99.90;;;;;;7364227;19;20026;-65
2024/02/04 05:48:10;;;;;;;12.40;2.85;;;6.70;99.90;;;;;;7365173;19;20089;-65
2024/02/04 05:50:41;;;;;;;10.88;4.03;;;6.70;99.90;;;;;;7367418;19;20049;-65
2024/02/04 05:53:08;;;;;;;8.27;2.47;;;6.80;99.90;;;;;;7360362;19;20164;-64
2024/02/04 05:55:34;;;;;;;11.75;3.25;;;6.80;99.90;;;;;;7364082;19;20010;-64
2024/02/04 05:58:01;;;;;;;10.50;3.10;;;6.80;99.90;;;;;;7364619;19;20055;-64
2024/02/04 06:00:27;;;;;;;11.93;2.63;;;6.90;99.90;;;;;;7364182;19;20020;-64
2024/02/04 06:02:53;;;;;;;10.73;2.58;;;6.90;99.90;;;;;;7363047;19;20018;-64
2024/02/04 06:05:19;;;;;;;14.57;3.47;;;6.90;99.90;;;;;;7364168;19;20011;-64
2024/02/04 06:07:45;;;;;;;13.35;3.40;;;6.90;99.90;;;;;;7367025;19;20022;-64
2024/02/04 06:10:12;;;;;;;11.15;2.80;;;6.90;99.90;;;;;;7362468;19;20036;-64
2024/02/04 06:12:40;;;;;;;12.00;2.67;;;6.90;99.90;;;;;;7361972;19;20021;-63
2024/02/04 06:15:12;;;;;;;11.95;3.30;;;7.00;99.90;;;;;;7360459;19;20898;-63
2024/02/04 06:17:39;;;;;;;11.55;2.67;;;6.90;99.90;;;;;;7361845;19;20011;-64
2024/02/04 06:20:05;;;;;;;13.45;2.55;;;7.00;99.90;;;;;;7358789;19;20023;-64
2024/02/04 06:22:32;;;;;;;9.10;2.40;;;7.00;99.90;;;;;;7363591;19;20479;-64
2024/02/04 06:24:58;;;;;;;11.68;2.47;;;7.00;99.90;;;;;;7364631;19;20029;-64
2024/02/04 06:27:24;;;;;;;12.75;3.17;;;7.00;99.90;;;;;;7362904;19;20026;-63
2024/02/04 06:29:50;;;;;;;11.10;2.58;;;7.00;99.90;;;;;;7364354;19;20055;-63
2024/02/04 06:32:20;;;;;;;13.07;3.63;;;7.00;99.90;;;;;;7365456;19;20122;-63
2024/02/04 06:34:46;;;;;;;13.07;3.47;;;7.00;99.90;;;;;;7363395;19;20389;-63
2024/02/04 06:37:13;;;;;;;12.93;2.60;;;7.00;99.90;;;;;;7363865;19;20495;-62
2024/02/04 06:39:39;;;;;;;7.53;1.70;;;7.10;99.90;;;;;;7361870;19;20022;-64
2024/02/04 06:42:05;;;;;;;9.65;2.92;;;7.00;99.90;;;;;;7362165;19;20026;-64
2024/02/04 06:44:32;;;;;;;9.90;2.85;;;7.00;99.90;;;;;;7359846;19;20695;-64
2024/02/04 06:46:58;;;;;;;12.32;2.58;;;7.10;99.90;;;;;;7358084;19;20788;-64
2024/02/04 06:49:24;;;;;;;10.02;2.13;;;7.10;99.90;;;;;;7360899;19;20894;-62
2024/02/04 06:51:56;;;;;;;12.88;2.50;;;7.10;99.90;;;;;;7360917;19;20642;-65
2024/02/04 06:54:23;;;;;;;14.80;2.97;;;7.10;99.90;;;;;;7359350;19;20582;-65
2024/02/04 06:56:52;;;;;;;12.15;2.95;;;7.10;99.90;;;;;;7364775;19;20033;-65
2024/02/04 06:59:19;;;;;;;15.65;2.92;;;7.10;99.90;;;;;;7364478;19;20533;-64
2024/02/04 07:01:46;;;;;;;13.00;2.92;;;7.10;99.90;;;;;;7367986;19;20594;-65
2024/02/04 07:04:12;;;;;;;11.40;3.05;;;7.20;99.90;;;;;;7362930;19;20349;-64
2024/02/04 07:06:38;;;;;;;13.43;2.88;;;7.20;99.90;;;;;;7361269;19;20610;-64
2024/02/04 07:09:05;;;;;;;15.57;2.80;;;7.20;99.90;;;;;;7365663;19;20023;-63
2024/02/04 07:11:31;;;;;;;18.17;3.42;;;7.20;99.90;;;;;;7366373;19;20049;-64
2024/02/04 07:13:59;;;;;;;19.63;3.50;;;7.20;99.90;;;;;;7372686;19;20042;-64
2024/02/04 07:16:26;;;;;;;13.18;2.58;;;7.20;99.90;;;;;;7374022;19;20492;-62
2024/02/04 07:18:52;;;;;;;14.98;2.53;;;7.20;99.90;;;;;;7368176;19;20043;-64
2024/02/04 07:21:18;;;;;;;15.88;2.95;;;7.20;99.90;;;;;;7368843;19;20011;-65
2024/02/04 07:23:44;;;;;;;13.25;2.80;;;7.20;99.90;;;;;;7374846;19;20051;-65
2024/02/04 07:26:12;;;;;;;14.10;2.90;;;7.20;99.90;;;;;;7370220;19;20022;-64
2024/02/04 07:28:38;;;;;;;12.48;2.72;;;7.20;99.90;;;;;;7371551;19;20035;-64
2024/02/04 07:31:04;;;;;;;15.57;3.13;;;7.20;99.90;;;;;;7367797;19;20075;-65
2024/02/04 07:33:30;;;;;;;14.77;3.92;;;7.20;99.90;;;;;;7367988;19;20107;-64
2024/02/04 07:35:56;;;;;;;14.80;3.08;;;7.20;99.90;;;;;;7369141;19;20018;-64
2024/02/04 07:38:23;;;;;;;13.07;2.75;;;7.20;99.90;;;;;;7369359;19;20018;-64
2024/02/04 07:40:49;;;;;;;12.02;3.05;;;7.20;99.90;;;;;;7364568;19;20761;-62
2024/02/04 07:43:15;;;;;;;16.30;2.83;;;7.30;99.90;;;;;;7369285;19;20131;-64
2024/02/04 07:45:42;;;;;;;13.98;2.78;;;7.30;99.90;;;;;;7369316;19;20484;-64
2024/02/04 07:48:09;;;;;;;15.90;3.25;;;7.30;99.90;;;;;;7369093;19;20053;-65
2024/02/04 07:50:38;;;;;;;11.18;3.15;;;7.30;99.90;;;;;;7369349;19;20022;-64
2024/02/04 07:53:04;;;;;;;15.52;3.35;;;7.40;99.90;;;;;;7366960;19;20055;-64
2024/02/04 07:55:30;;;;;;;15.35;3.50;;;7.40;99.90;;;;;;7364962;19;20121;-64
2024/02/04 07:57:56;;;;;;;11.30;3.30;;;7.50;99.90;;;;;;7370081;19;20030;-65
2024/02/04 08:00:23;;;;;;;9.70;2.95;;;7.50;99.90;;;;;;7365975;19;20094;-64
2024/02/04 08:02:50;;;;;;;9.43;2.75;;;7.50;99.90;;;;;;7367590;19;20082;-64
2024/02/04 08:05:18;;;;;;;14.13;3.13;;;7.60;99.90;;;;;;7365179;19;20511;-64
2024/02/04 08:07:45;;;;;;;8.60;2.40;;;7.60;99.90;;;;;;7366685;19;20014;-64
2024/02/04 08:10:12;;;;;;;12.80;3.05;;;7.70;99.90;;;;;;7364609;19;20065;-64
2024/02/04 08:12:39;;;;;;;10.77;3.58;;;7.70;99.90;;;;;;7365091;19;20045;-64
2024/02/04 08:15:06;;;;;;;13.00;3.00;;;7.80;99.90;;;;;;7363836;19;20126;-64
2024/02/04 08:17:33;;;;;;;10.35;2.85;;;7.80;99.90;;;;;;7368710;19;20021;-64
2024/02/04 08:20:01;;;;;;;15.95;4.32;;;7.90;99.90;;;;;;7366909;19;20128;-65
2024/02/04 08:22:28;;;;;;;13.73;4.50;;;7.90;99.90;;;;;;7364066;19;20106;-64
2024/02/04 08:24:55;;;;;;;12.52;3.38;;;7.90;99.90;;;;;;7361980;19;20022;-64
2024/02/04 08:27:22;;;;;;;11.32;3.53;;;8.00;99.90;;;;;;7367132;19;20811;-64
2024/02/04 08:29:49;;;;;;;10.40;3.20;;;8.00;99.90;;;;;;7365168;19;20018;-64
2024/02/04 08:32:16;;;;;;;12.85;3.10;;;8.00;99.90;;;;;;7369107;19;20069;-64
2024/02/04 08:34:44;;;;;;;8.73;2.97;;;8.10;99.90;;;;;;7368488;19;20086;-64
2024/02/04 08:37:11;;;;;;;9.70;2.78;;;8.10;99.90;;;;;;7366032;19;20098;-64
2024/02/04 08:39:38;;;;;;;13.00;3.90;;;8.20;99.90;;;;;;7370302;19;20014;-64
2024/02/04 08:42:05;;;;;;;12.63;3.38;;;8.20;99.90;;;;;;7364290;19;20074;-64
2024/02/04 08:44:32;;;;;;;10.65;2.78;;;8.20;99.90;;;;;;7363710;19;20021;-64
2024/02/04 08:46:59;;;;;;;9.25;2.63;;;8.30;99.90;;;;;;7364370;19;20018;-64
2024/02/04 08:49:26;;;;;;;7.80;2.60;;;8.30;99.90;;;;;;7370140;19;20545;-64
2024/02/04 08:51:53;;;;;;;12.38;2.97;;;8.40;99.90;;;;;;7369306;19;20629;-65
2024/02/04 08:54:20;;;;;;;13.30;2.58;;;8.40;99.90;;;;;;7369820;19;20044;-67
2024/02/04 08:56:47;;;;;;;8.13;2.45;;;8.40;99.90;;;;;;7370721;19;20046;-65
2024/02/04 08:59:15;;;;;;;12.50;2.90;;;8.50;99.90;;;;;;7373137;19;20528;-65
2024/02/04 09:01:42;;;;;;;11.35;2.90;;;8.50;99.90;;;;;;7376062;19;20035;-65
2024/02/04 09:04:09;;;;;;;12.27;2.70;;;8.50;99.90;;;;;;7374337;19;20015;-63
2024/02/04 09:06:36;;;;;;;8.98;2.60;;;8.60;99.90;;;;;;7370763;19;20018;-66
2024/02/04 09:09:03;;;;;;;11.02;2.85;;;8.60;99.90;;;;;;7375949;19;20621;-66
2024/02/04 09:11:30;;;;;;;9.82;3.58;;;8.60;99.90;;;;;;7376918;19;20018;-64
2024/02/04 09:13:57;;;;;;;9.13;2.28;;;8.60;99.90;;;;;;7374320;19;20022;-65
2024/02/04 09:16:25;;;;;;;9.32;2.63;;;8.60;99.90;;;;;;7372096;19;20813;-65
2024/02/04 09:18:52;;;;;;;8.65;2.47;;;8.60;99.90;;;;;;7370855;19;20105;-65
2024/02/04 09:21:27;;;;;;;14.93;3.45;;;8.70;99.90;;;;;;7369905;19;20014;-65
2024/02/04 09:23:58;;;;;;;9.23;2.75;;;8.70;99.90;;;;;;7373437;19;20090;-66
2024/02/04 09:26:25;;;;;;;9.20;2.40;;;8.80;99.90;;;;;;7368395;19;20472;-64
2024/02/04 09:28:52;;;;;;;10.13;3.42;;;8.90;99.90;;;;;;7371642;19;20019;-64
2024/02/04 09:31:20;;;;;;;7.93;2.15;;;9.10;99.90;;;;;;7369985;19;20602;-65
2024/02/04 09:33:51;;;;;;;10.32;3.30;;;9.10;99.90;;;;;;7374003;19;20866;-65
2024/02/04 09:36:18;;;;;;;12.05;5.78;;;9.20;99.90;;;;;;7369048;19;20041;-67
2024/02/04 09:38:45;;;;;;;8.20;2.97;;;9.30;99.90;;;;;;7368932;19;20022;-65
2024/02/04 09:41:15;;;;;;;17.23;8.00;;;9.60;99.90;;;;;;7368282;19;20018;-65
2024/02/04 09:43:45;;;;;;;10.93;5.43;;;9.70;99.90;;;;;;7367576;19;20018;-65
2024/02/04 09:46:12;;;;;;;9.93;2.47;;;9.80;99.90;;;;;;7369923;19;20011;-65
2024/02/04 09:48:39;;;;;;;8.40;2.75;;;9.70;99.90;;;;;;7366258;19;20014;-65
2024/02/04 09:51:06;;;;;;;6.47;2.42;;;9.60;99.90;;;;;;7368722;19;20023;-65
2024/02/04 09:53:34;;;;;;;13.07;2.55;;;9.60;99.90;;;;;;7369907;19;20035;-65
2024/02/04 09:56:03;;;;;;;9.30;2.15;;;9.60;99.90;;;;;;7371388;19;20022;-65
2024/02/04 09:58:30;;;;;;;9.07;2.28;;;9.60;99.90;;;;;;7368271;19;20019;-64
2024/02/04 10:00:57;;;;;;;10.48;1.95;;;9.60;99.90;;;;;;7372946;19;20018;-65
2024/02/04 10:03:23;;;;;;;8.45;2.13;;;9.80;99.90;;;;;;7368525;19;20026;-65
2024/02/04 10:05:49;;;;;;;7.47;1.98;;;10.00;99.90;;;;;;7371477;19;20479;-65
2024/02/04 10:08:16;;;;;;;9.68;2.70;;;10.40;99.90;;;;;;7366900;19;20023;-65
2024/02/04 10:10:45;;;;;;;7.68;2.20;;;10.90;99.90;;;;;;7369629;19;20639;-64
2024/02/04 10:13:11;;;;;;;4.45;1.83;;;11.10;99.90;;;;;;7365668;19;20594;-64
2024/02/04 10:15:37;;;;;;;7.53;2.75;;;11.40;99.90;;;;;;7367067;19;20014;-65
2024/02/04 10:18:08;;;;;;;10.63;2.60;;;11.40;99.90;;;;;;7365797;19;20017;-65
2024/02/04 10:20:34;;;;;;;11.95;2.85;;;11.40;99.90;;;;;;7364991;19;20683;-65
2024/02/04 10:23:01;;;;;;;5.35;1.60;;;11.40;99.90;;;;;;7366701;19;20023;-65
2024/02/04 10:25:27;;;;;;;6.75;1.50;;;11.60;99.90;;;;;;7367189;19;20022;-65
2024/02/04 10:27:54;;;;;;;6.43;1.95;;;11.40;99.90;;;;;;7366710;19;20018;-65
2024/02/04 10:30:21;;;;;;;6.13;1.60;;;11.50;99.90;;;;;;7365322;19;20026;-64
2024/02/04 10:32:51;;;;;;;6.90;1.73;;;11.20;99.90;;;;;;7366039;19;20014;-65
2024/02/04 10:35:22;;;;;;;9.85;2.33;;;11.10;99.90;;;;;;7368431;19;20029;-65
2024/02/04 10:37:50;;;;;;;8.77;2.10;;;10.80;99.90;;;;;;7368040;19;20078;-65
2024/02/04 10:40:18;;;;;;;8.60;2.00;;;10.40;99.90;;;;;;7362856;19;20039;-65
2024/02/04 10:42:45;;;;;;;7.57;1.63;;;10.50;99.90;;;;;;7366884;19;20715;-65
2024/02/04 10:45:17;;;;;;;7.10;1.83;;;10.40;99.90;;;;;;7367625;19;20024;-65
2024/02/04 10:47:55;;;;;;;5.57;1.70;;;10.30;99.90;;;;;;7366443;19;20536;-64
2024/02/04 10:50:24;;;;;;;5.18;1.75;;;10.40;99.90;;;;;;7366538;19;20026;-65
2024/02/04 10:52:50;;;;;;;13.52;4.93;;;10.20;99.90;;;;;;7365961;19;20122;-65
2024/02/04 10:55:21;;;;;;;6.10;1.92;;;10.30;99.90;;;;;;7365001;19;20018;-65
2024/02/04 10:57:51;;;;;;;4.30;1.20;;;10.30;99.90;;;;;;7369464;19;20043;-64
2024/02/04 11:00:20;;;;;;;5.07;1.52;;;10.20;99.90;;;;;;7367780;19;20022;-64
2024/02/04 11:02:48;;;;;;;6.88;1.70;;;10.20;99.90;;;;;;7367127;19;20031;-64
2024/02/04 11:05:17;;;;;;;8.93;3.08;;;10.10;99.90;;;;;;7365201;19;20018;-65
2024/02/04 11:07:44;;;;;;;8.20;2.63;;;10.10;99.90;;;;;;7362887;19;20093;-65
2024/02/04 11:10:11;;;;;;;3.63;1.27;;;10.10;99.90;;;;;;7365991;19;20026;-65
2024/02/04 11:12:40;;;;;;;6.32;1.95;;;10.00;99.90;;;;;;7366487;19;20558;-64
2024/02/04 11:15:10;;;;;;;4.78;1.52;;;10.00;99.90;;;;;;7367639;19;20021;-64
2024/02/04 11:18:13;;;;;;;5.50;2.00;;;10.00;99.90;;;;;;7366916;19;20018;-65
2024/02/04 11:21:01;;;;;;;7.47;1.90;;;9.90;99.90;;;;;;7363173;19;20345;-65
2024/02/04 11:23:45;;;;;;;7.45;2.10;;;9.80;99.90;;;;;;7359563;19;20421;-65
2024/02/04 11:26:13;;;;;;;7.20;2.28;;;9.80;99.90;;;;;;7365738;19;20019;-63
2024/02/04 11:28:39;;;;;;;5.30;2.15;;;9.70;99.90;;;;;;7368684;19;20515;-65
2024/02/04 11:31:19;;;;;;;6.85;2.40;;;9.70;99.90;;;;;;7369219;19;20057;-66
2024/02/04 11:33:46;;;;;;;8.23;2.63;;;9.60;99.90;;;;;;7371560;19;20043;-66
2024/02/04 11:36:14;;;;;;;6.40;2.55;;;9.70;99.90;;;;;;7369759;19;20018;-67
2024/02/04 11:38:41;;;;;;;4.22;2.47;;;9.70;99.90;;;;;;7370991;19;20631;-65
2024/02/04 11:41:08;;;;;;;9.07;4.20;;;9.70;99.90;;;;;;7369264;19;20527;-65
2024/02/04 11:43:36;;;;;;;5.63;2.97;;;9.80;99.90;;;;;;7369682;19;20033;-65
2024/02/04 11:46:05;;;;;;;6.88;2.53;;;9.80;99.90;;;;;;7369615;19;20935;-65
2024/02/04 11:48:34;;;;;;;5.78;2.00;;;9.80;99.90;;;;;;7367024;19;20031;-63
2024/02/04 11:51:03;;;;;;;4.68;1.70;;;9.80;99.90;;;;;;7371645;19;20089;-65
2024/02/04 11:53:32;;;;;;;4.03;1.85;;;9.80;99.90;;;;;;7367750;19;20754;-66
2024/02/04 11:56:03;;;;;;;4.80;1.85;;;9.80;99.90;;;;;;7370780;19;20029;-65
2024/02/04 11:58:31;;;;;;;8.13;2.30;;;9.80;99.90;;;;;;7365727;19;20049;-65
2024/02/04 12:00:58;;;;;;;6.38;2.30;;;9.80;99.90;;;;;;7377410;19;20081;-66
2024/02/04 12:03:34;;;;;;;5.30;1.80;;;9.80;99.90;;;;;;7374486;19;20486;-66
2024/02/04 12:06:01;;;;;;;6.45;1.73;;;9.90;99.90;;;;;;7375001;19;20034;-66
2024/02/04 12:08:28;;;;;;;4.63;1.60;;;9.90;99.90;;;;;;7378164;19;20590;-65
2024/02/04 12:10:56;;;;;;;3.90;1.40;;;9.90;99.90;;;;;;7378290;19;20018;-66
2024/02/04 12:13:23;;;;;;;4.88;1.45;;;10.00;99.90;;;;;;7371646;19;20018;-64
2024/02/04 12:15:50;;;;;;;4.93;1.77;;;10.00;99.90;;;;;;7376905;19;20018;-63
2024/02/04 12:18:19;;;;;;;3.88;1.48;;;10.00;99.90;;;;;;7371931;19;20019;-63
2024/02/04 12:20:50;;;;;;;5.07;1.63;;;10.10;99.90;;;;;;7374546;19;20010;-65
2024/02/04 12:23:21;;;;;;;6.00;1.70;;;10.10;99.90;;;;;;7365610;19;20035;-65
2024/02/04 12:25:48;;;;;;;7.68;1.90;;;10.10;99.90;;;;;;7376260;19;20026;-65
2024/02/04 12:28:14;;;;;;;8.10;3.38;;;10.10;99.90;;;;;;7369058;19;20456;-65
2024/02/04 12:30:41;;;;;;;7.00;1.92;;;10.10;99.90;;;;;;7374885;19;20022;-65
2024/02/04 12:33:08;;;;;;;6.20;1.65;;;10.20;99.90;;;;;;7372426;19;20390;-66
2024/02/04 12:35:35;;;;;;;6.18;1.10;;;10.20;99.90;;;;;;7367957;19;20023;-66
2024/02/04 12:38:01;;;;;;;5.07;1.35;;;10.10;99.90;;;;;;7371149;19;20366;-66
2024/02/04 12:40:29;;;;;;;6.10;1.25;;;10.10;99.90;;;;;;7368388;19;20374;-66
2024/02/04 12:42:57;;;;;;;4.38;1.20;;;10.10;99.90;;;;;;7371696;19;20061;-65
2024/02/04 12:45:26;;;;;;;5.80;1.10;;;10.00;99.90;;;;;;7367539;19;20342;-65
2024/02/04 12:47:54;;;;;;;6.80;1.50;;;10.00;99.90;;;;;;7369338;19;21289;-65
2024/02/04 12:50:21;;;;;;;6.47;2.08;;;9.90;99.90;;;;;;7366674;19;20515;-65